Cape May Point, New Jersey
Current Conditions -  °F | °C
As of 2:15 AM on Friday 19 Dec 2014 (Local Time) from KWWD Reporting Station
Broken Clouds Broken Clouds  
Wind Chill: 31°   Ceiling: 11000
Heat Index: 37°   Visibility: 10mi
Dew Point: 25°   Wind: 9mph
Humidity: 60%   Direction: 290°WNW
Pressure: 30.04"   Gusts: NA
Location:  38.94°N, 74.97°W
Report Text: KWWD 190715Z AUTO 29008KT 10SM BKN110 03/M04 A3004 RMK AO1
Loading
Personal Weather Stations






























Interactive Weather Map New forecast layout! Learn more

10-Day Weather Forecast

Advertisements
Track Severe Weather on mobile